Time;durP1;ratioP1;P1;durP2;ratioP2;P2;SDS_P1;SDS_P2;PMS_P1;PMS_P2;Temp;Humidity;BMP_temperature;BMP_pressure;BME280_temperature;BME280_humidity;BME280_pressure;Samples;Min_cycle;Max_cycle;Signal;HPM_P1;HPM_P2
2022/09/13 00:01:00;;;;;;;23.02;19.10;;;17.60;99.90;;;;;;5009077;28;20443;-89
2022/09/13 00:03:26;;;;;;;26.42;19.70;;;17.70;99.90;;;;;;4998938;28;20089;-89
2022/09/13 00:05:55;;;;;;;25.10;19.58;;;17.70;99.90;;;;;;4986572;28;20038;-89
2022/09/13 00:08:21;;;;;;;23.80;18.60;;;17.70;99.90;;;;;;4992093;28;20079;-90
2022/09/13 00:10:47;;;;;;;26.10;19.63;;;17.70;99.90;;;;;;4984368;28;20077;-89
2022/09/13 00:13:14;;;;;;;26.77;17.85;;;17.60;99.90;;;;;;4991086;28;20119;-90
2022/09/13 00:15:45;;;;;;;26.25;19.52;;;17.70;99.90;;;;;;4968600;28;20478;-89
2022/09/13 00:18:11;;;;;;;25.83;19.10;;;17.70;99.90;;;;;;4988687;28;20042;-89
2022/09/13 00:20:40;;;;;;;22.35;18.73;;;17.60;99.90;;;;;;4991721;28;20116;-90
2022/09/13 00:23:06;;;;;;;25.60;20.33;;;17.70;99.90;;;;;;4965386;28;20368;-92
2022/09/13 00:25:32;;;;;;;25.98;21.50;;;17.70;99.90;;;;;;4985229;28;20085;-90
2022/09/13 00:27:57;;;;;;;25.50;20.77;;;17.60;99.90;;;;;;4991139;28;20045;-91
2022/09/13 00:30:23;;;;;;;25.55;21.30;;;17.60;99.90;;;;;;4995635;28;20034;-90
2022/09/13 00:32:49;;;;;;;26.55;21.85;;;17.60;99.90;;;;;;4993805;28;20034;-91
2022/09/13 00:35:15;;;;;;;25.95;21.83;;;17.60;99.90;;;;;;4966409;28;20046;-92
2022/09/13 00:37:40;;;;;;;24.77;21.77;;;17.60;99.90;;;;;;4988515;28;20102;-92
2022/09/13 00:40:06;;;;;;;30.45;24.25;;;17.70;99.90;;;;;;4994175;28;20443;-90
2022/09/13 00:42:33;;;;;;;32.40;23.50;;;17.70;99.90;;;;;;4992775;28;20041;-91
2022/09/13 00:45:01;;;;;;;27.83;22.33;;;17.60;99.90;;;;;;4990870;28;20124;-90
2022/09/13 00:47:31;;;;;;;29.90;22.95;;;17.60;99.90;;;;;;4972868;28;20034;-90
2022/09/13 00:50:15;;;;;;;27.60;21.90;;;17.60;99.90;;;;;;4992246;28;20042;-91
2022/09/13 00:52:46;;;;;;;27.85;22.20;;;17.70;99.90;;;;;;5006533;28;20082;-91
2022/09/13 00:55:42;;;;;;;26.83;22.02;;;17.60;99.90;;;;;;4970109;28;20117;-89
2022/09/13 00:58:16;;;;;;;31.25;22.75;;;17.60;99.90;;;;;;4983495;28;20057;-91
2022/09/13 01:00:43;;;;;;;28.70;22.87;;;17.70;99.90;;;;;;4988821;28;20046;-92
2022/09/13 01:03:12;;;;;;;30.88;23.85;;;17.70;99.90;;;;;;4999582;28;20039;-89
2022/09/13 01:05:46;;;;;;;30.65;22.98;;;17.70;99.90;;;;;;4993054;28;20121;-92
2022/09/13 01:08:19;;;;;;;29.98;22.40;;;17.60;99.90;;;;;;4967552;28;20069;-89
2022/09/13 01:10:48;;;;;;;28.58;22.33;;;17.70;99.90;;;;;;4984070;28;20037;-90
2022/09/13 01:13:22;;;;;;;29.65;21.58;;;17.70;99.90;;;;;;4992128;28;20819;-90
2022/09/13 01:15:48;;;;;;;27.10;20.23;;;17.80;99.90;;;;;;4967448;28;20046;-90
2022/09/13 01:18:14;;;;;;;25.45;20.38;;;17.70;99.90;;;;;;4970918;28;20647;-91
2022/09/13 01:20:51;;;;;;;25.65;19.38;;;17.80;99.90;;;;;;4966675;28;20036;-90
2022/09/13 01:23:26;;;;;;;26.10;19.83;;;17.70;99.90;;;;;;4995916;28;21361;-90
2022/09/13 01:26:01;;;;;;;25.48;19.63;;;17.70;99.90;;;;;;4997356;28;20064;-90
2022/09/13 01:29:05;;;;;;;22.38;17.30;;;17.60;99.90;;;;;;5013417;28;20053;-90
2022/09/13 01:31:42;;;;;;;23.25;18.88;;;17.60;99.90;;;;;;4960370;28;20046;-90
2022/09/13 01:34:17;;;;;;;23.88;17.52;;;17.60;99.90;;;;;;4966196;28;20046;-92
2022/09/13 01:36:51;;;;;;;;;;;17.70;99.90;;;;;;5012101;28;20124;-92
2022/09/13 01:39:31;;;;;;;22.77;17.73;;;17.70;99.90;;;;;;4975400;28;19925;-90
2022/09/13 01:42:03;;;;;;;26.63;18.13;;;17.60;99.90;;;;;;4991944;28;20057;-90
2022/09/13 01:45:03;;;;;;;24.63;18.55;;;17.60;99.90;;;;;;4959953;28;20517;-93
2022/09/13 01:47:51;;;;;;;22.63;17.40;;;17.70;99.90;;;;;;4967993;28;20040;-92
2022/09/13 01:50:21;;;;;;;22.90;17.33;;;17.50;99.90;;;;;;4986927;28;20042;-91
2022/09/13 01:53:02;;;;;;;23.60;17.67;;;17.60;99.90;;;;;;4968701;28;20101;-91
2022/09/13 01:55:50;;;;;;;22.30;17.90;;;17.50;99.90;;;;;;4993120;28;20071;-90
2022/09/13 01:58:27;;;;;;;22.65;17.27;;;17.70;99.90;;;;;;4970931;28;20047;-91
2022/09/13 02:01:17;;;;;;;22.27;17.45;;;17.70;99.90;;;;;;5002126;28;20030;-90
2022/09/13 02:04:01;;;;;;;22.77;17.33;;;17.50;99.90;;;;;;4987656;28;20494;-91
2022/09/13 02:06:35;;;;;;;22.05;17.65;;;17.60;99.90;;;;;;4975222;28;20085;-90
2022/09/13 02:09:08;;;;;;;23.75;18.40;;;17.60;99.90;;;;;;4991505;28;20049;-90
2022/09/13 02:11:36;;;;;;;23.02;18.55;;;17.50;99.90;;;;;;4990773;28;20195;-90
2022/09/13 02:14:16;;;;;;;21.67;17.40;;;17.60;99.90;;;;;;4974452;28;20030;-90
2022/09/13 02:17:00;;;;;;;26.30;18.63;;;17.50;99.90;;;;;;4966851;28;20046;-90
2022/09/13 02:19:48;;;;;;;26.23;18.30;;;17.60;99.90;;;;;;4968985;28;20038;-91
2022/09/13 02:22:19;;;;;;;25.42;17.60;;;17.50;99.90;;;;;;4960172;28;20145;-91
2022/09/13 02:24:50;;;;;;;21.70;17.20;;;17.60;99.90;;;;;;4971925;28;20560;-91
2022/09/13 02:27:23;;;;;;;26.48;18.65;;;17.50;99.90;;;;;;4989339;28;20668;-93
2022/09/13 02:29:53;;;;;;;25.38;18.33;;;17.50;99.90;;;;;;4995109;28;20049;-91
2022/09/13 02:32:29;;;;;;;25.15;18.85;;;17.70;99.90;;;;;;4994884;28;20401;-91
2022/09/13 02:35:10;;;;;;;22.35;16.77;;;17.50;99.90;;;;;;4993013;28;20049;-91
2022/09/13 02:37:39;;;;;;;23.17;17.25;;;17.50;99.90;;;;;;4983712;28;20043;-91
2022/09/13 02:40:13;;;;;;;22.20;18.10;;;17.40;99.90;;;;;;4997816;28;20034;-92
2022/09/13 02:43:03;;;;;;;24.55;18.13;;;17.50;99.90;;;;;;4964727;28;20631;-93
2022/09/13 02:45:40;;;;;;;23.20;18.67;;;17.50;99.90;;;;;;4973919;28;20549;-90
2022/09/13 02:48:18;;;;;;;23.08;18.00;;;17.50;99.90;;;;;;4983098;28;20133;-92
2022/09/13 02:51:05;;;;;;;30.20;19.02;;;17.50;99.90;;;;;;4987415;28;20095;-90
2022/09/13 02:54:04;;;;;;;26.27;19.98;;;17.40;99.90;;;;;;4967160;28;20193;-91
2022/09/13 02:56:59;;;;;;;29.73;19.95;;;17.40;99.90;;;;;;4987359;28;20362;-91
2022/09/13 02:59:25;;;;;;;28.35;19.70;;;17.50;99.90;;;;;;4993737;28;20097;-92
2022/09/13 03:02:13;;;;;;;31.27;20.85;;;17.50;99.90;;;;;;4965833;28;20293;-91
2022/09/13 03:04:39;;;;;;;28.38;21.25;;;17.50;99.90;;;;;;4959796;28;20193;-91
2022/09/13 03:07:12;;;;;;;25.08;20.80;;;17.50;99.90;;;;;;4994511;28;20130;-91
2022/09/13 03:10:04;;;;;;;29.95;22.33;;;17.60;99.90;;;;;;4992524;28;20136;-93
2022/09/13 03:12:51;;;;;;;26.02;20.48;;;17.70;99.90;;;;;;4998677;28;20039;-91
2022/09/13 03:15:52;;;;;;;27.15;20.27;;;17.60;99.90;;;;;;4970889;28;20125;-91
2022/09/13 03:18:33;;;;;;;27.30;19.73;;;17.70;99.90;;;;;;4974745;28;20058;-92
2022/09/13 03:21:10;;;;;;;27.27;21.52;;;17.60;99.90;;;;;;4971400;28;20493;-91
2022/09/13 03:23:45;;;;;;;30.13;20.50;;;17.60;99.90;;;;;;4993715;28;20034;-90
2022/09/13 03:26:26;;;;;;;;;;;17.70;99.90;;;;;;4985812;28;20264;-92
2022/09/13 03:29:11;;;;;;;30.90;21.88;;;17.60;99.90;;;;;;4992216;28;20280;-92
2022/09/13 03:32:16;;;;;;;27.30;21.42;;;17.60;99.90;;;;;;4991055;28;20564;-91
2022/09/13 03:35:02;;;;;;;30.90;21.98;;;17.70;99.90;;;;;;4970812;28;20038;-92
2022/09/13 03:37:47;;;;;;;29.30;22.05;;;17.90;99.90;;;;;;4990201;28;20359;-92
2022/09/13 03:40:32;;;;;;;30.80;21.95;;;17.80;99.90;;;;;;4970290;28;20054;-92
2022/09/13 03:43:10;;;;;;;32.85;22.00;;;17.90;99.90;;;;;;4994768;28;20053;-92
2022/09/13 03:45:44;;;;;;;27.65;20.05;;;17.70;99.90;;;;;;4978178;28;20530;-91
2022/09/13 03:48:12;;;;;;;24.05;17.48;;;17.90;99.90;;;;;;4996224;28;20267;-91
2022/09/13 03:50:39;;;;;;;20.33;14.55;;;17.90;99.90;;;;;;4995285;28;20102;-91
2022/09/13 03:53:10;;;;;;;17.35;13.32;;;17.80;99.90;;;;;;4967818;28;20040;-91
2022/09/13 03:55:41;;;;;;;19.55;13.57;;;17.80;99.90;;;;;;4995707;28;20125;-92
2022/09/13 03:58:12;;;;;;;17.83;13.70;;;18.10;99.90;;;;;;4983529;28;20125;-90
2022/09/13 04:00:41;;;;;;;21.67;13.98;;;17.80;99.90;;;;;;4962920;28;20080;-91
2022/09/13 04:03:08;;;;;;;17.42;12.90;;;17.80;99.90;;;;;;4996121;28;20044;-91
2022/09/13 04:05:34;;;;;;;15.88;13.10;;;18.00;99.90;;;;;;4998287;28;20035;-91
2022/09/13 04:08:01;;;;;;;17.27;11.93;;;18.10;99.90;;;;;;4985576;28;20046;-92
2022/09/13 04:10:30;;;;;;;15.40;12.02;;;17.90;99.90;;;;;;4968602;28;20041;-92
2022/09/13 04:12:58;;;;;;;14.65;11.05;;;17.90;99.90;;;;;;4966087;28;20037;-92
2022/09/13 04:15:24;;;;;;;17.38;10.93;;;18.00;99.90;;;;;;4970942;28;20346;-93
2022/09/13 04:17:49;;;;;;;9.18;6.70;;;17.90;99.90;;;;;;4969837;28;20042;-93
2022/09/13 04:20:15;;;;;;;10.45;6.75;;;17.80;99.90;;;;;;4970109;28;20073;-93
2022/09/13 04:22:41;;;;;;;6.32;5.07;;;17.70;99.90;;;;;;4969967;28;20352;-92
2022/09/13 04:25:07;;;;;;;8.77;5.25;;;17.90;99.90;;;;;;4972076;28;20453;-92
2022/09/13 04:27:34;;;;;;;9.07;5.35;;;17.90;99.90;;;;;;4974750;28;20125;-93
2022/09/13 04:30:01;;;;;;;6.95;5.20;;;17.80;99.90;;;;;;5011831;28;20117;-92
2022/09/13 04:32:27;;;;;;;8.30;5.13;;;17.80;99.90;;;;;;4970104;28;20180;-92
2022/09/13 04:34:53;;;;;;;8.52;5.07;;;17.70;99.90;;;;;;4966382;28;20081;-90
2022/09/13 04:37:19;;;;;;;6.78;4.72;;;17.80;99.90;;;;;;4971095;28;20038;-92
2022/09/13 04:39:45;;;;;;;7.28;5.18;;;17.80;99.90;;;;;;4992146;28;20030;-91
2022/09/13 04:42:11;;;;;;;7.88;4.88;;;17.80;99.90;;;;;;4976515;28;20034;-91
2022/09/13 04:44:40;;;;;;;7.57;5.00;;;17.70;99.90;;;;;;4972179;28;20600;-91
2022/09/13 04:47:07;;;;;;;6.30;5.30;;;17.80;99.90;;;;;;4994742;28;20506;-92
2022/09/13 04:49:33;;;;;;;6.47;4.85;;;17.70;99.90;;;;;;4964619;28;20149;-92
2022/09/13 04:51:59;;;;;;;6.72;3.88;;;17.80;99.90;;;;;;4990515;28;20126;-90
2022/09/13 04:54:25;;;;;;;6.70;4.20;;;17.60;99.90;;;;;;4984147;28;20038;-92
2022/09/13 04:56:51;;;;;;;9.73;4.68;;;17.60;99.90;;;;;;4965154;28;20108;-91
2022/09/13 04:59:16;;;;;;;7.25;4.43;;;17.80;99.90;;;;;;4990340;28;20053;-92
2022/09/13 05:01:42;;;;;;;6.07;4.53;;;17.80;99.90;;;;;;4964771;28;20121;-92
2022/09/13 05:04:08;;;;;;;6.75;4.15;;;17.80;99.90;;;;;;4967780;28;20046;-91
2022/09/13 05:06:35;;;;;;;5.30;4.03;;;17.70;99.90;;;;;;4964100;28;20054;-92
2022/09/13 05:09:01;;;;;;;8.13;3.83;;;17.50;99.90;;;;;;4989739;28;20053;-91
2022/09/13 05:11:27;;;;;;;4.80;3.70;;;17.70;99.90;;;;;;4969379;28;20057;-92
2022/09/13 05:13:55;;;;;;;7.38;3.50;;;17.60;99.90;;;;;;4971033;28;20041;-91
2022/09/13 05:16:26;;;;;;;7.05;3.45;;;17.70;99.90;;;;;;4967179;28;20117;-90
2022/09/13 05:18:52;;;;;;;8.43;2.70;;;17.70;99.90;;;;;;4961470;28;20107;-90
2022/09/13 05:21:18;;;;;;;7.05;2.95;;;17.50;99.90;;;;;;4970093;28;20645;-93
2022/09/13 05:23:44;;;;;;;6.30;3.13;;;17.70;99.90;;;;;;5006386;28;20077;-91
2022/09/13 05:26:10;;;;;;;5.22;2.90;;;17.50;99.90;;;;;;4969817;28;20065;-92
2022/09/13 05:28:36;;;;;;;7.80;3.15;;;17.60;99.90;;;;;;4970009;28;20489;-90
2022/09/13 05:31:11;;;;;;;6.05;3.10;;;17.50;99.90;;;;;;4967367;28;20137;-92
2022/09/13 05:33:37;;;;;;;5.97;2.78;;;17.70;99.90;;;;;;4995214;28;20042;-93
2022/09/13 05:36:05;;;;;;;4.93;2.55;;;17.50;99.90;;;;;;4968796;28;20096;-93
2022/09/13 05:38:31;;;;;;;4.15;2.47;;;17.50;99.90;;;;;;4966045;28;20042;-91
2022/09/13 05:40:59;;;;;;;6.82;2.40;;;17.50;99.90;;;;;;4968015;28;20379;-94
2022/09/13 05:43:30;;;;;;;5.45;2.80;;;17.50;99.90;;;;;;4966302;28;20038;-94
2022/09/13 05:46:07;;;;;;;4.15;2.40;;;17.60;99.90;;;;;;4969243;28;20065;-93
2022/09/13 05:48:34;;;;;;;5.05;2.47;;;17.70;99.90;;;;;;4988734;28;20042;-94
2022/09/13 05:51:12;;;;;;;4.80;2.40;;;17.60;99.90;;;;;;4997419;28;20109;-93
2022/09/13 05:53:39;;;;;;;6.60;2.40;;;17.40;99.90;;;;;;4997208;28;20050;-93
2022/09/13 05:56:10;;;;;;;6.50;2.40;;;17.40;99.90;;;;;;4998106;28;20547;-92
2022/09/13 05:58:42;;;;;;;4.15;2.10;;;17.60;99.90;;;;;;4961075;28;20034;-92
2022/09/13 06:01:08;;;;;;;5.50;2.00;;;17.40;99.90;;;;;;4958624;28;20553;-93
2022/09/13 06:03:35;;;;;;;5.47;2.40;;;17.60;99.90;;;;;;4964324;28;20065;-91
2022/09/13 06:06:02;;;;;;;5.75;2.05;;;17.50;99.90;;;;;;4968995;28;20046;-93
2022/09/13 06:08:29;;;;;;;6.00;2.10;;;17.50;99.90;;;;;;4970313;28;20038;-92
2022/09/13 06:11:07;;;;;;;3.97;2.33;;;17.60;99.90;;;;;;4998174;28;21272;-92
2022/09/13 06:13:34;;;;;;;6.20;2.42;;;17.50;99.90;;;;;;4968527;28;20569;-94
2022/09/13 06:16:00;;;;;;;6.35;2.40;;;17.50;99.90;;;;;;4966175;28;20121;-93
2022/09/13 06:18:27;;;;;;;7.60;2.50;;;17.50;99.90;;;;;;4964745;28;20113;-92
2022/09/13 06:21:01;;;;;;;3.90;2.30;;;17.40;99.90;;;;;;4990454;28;20034;-93
2022/09/13 06:23:27;;;;;;;6.40;2.20;;;17.50;99.90;;;;;;4965065;28;20081;-92
2022/09/13 06:26:02;;;;;;;5.93;2.25;;;17.70;99.90;;;;;;4964605;28;20150;-90
2022/09/13 06:28:28;;;;;;;7.82;2.00;;;17.80;99.90;;;;;;4983333;28;20049;-90
2022/09/13 06:31:21;;;;;;;3.97;2.13;;;17.80;99.90;;;;;;4985978;28;20037;-91
2022/09/13 06:33:48;;;;;;;5.15;2.25;;;17.70;99.90;;;;;;4990732;28;20207;-91
2022/09/13 06:36:17;;;;;;;4.38;2.20;;;17.70;99.90;;;;;;4962673;28;20038;-92
2022/09/13 06:38:43;;;;;;;6.35;2.38;;;18.00;99.90;;;;;;4963994;28;20516;-91
2022/09/13 06:41:17;;;;;;;5.45;2.60;;;18.10;99.90;;;;;;4964080;28;20052;-92
2022/09/13 06:43:43;;;;;;;5.40;2.40;;;18.10;99.90;;;;;;4972175;28;20061;-93
2022/09/13 06:46:14;;;;;;;7.70;2.65;;;18.10;99.90;;;;;;4968151;28;20101;-92
2022/09/13 06:48:42;;;;;;;7.18;2.72;;;18.10;99.90;;;;;;4970201;28;20150;-92
2022/09/13 06:51:11;;;;;;;6.90;2.88;;;18.10;99.90;;;;;;4969853;28;20038;-91
2022/09/13 06:53:37;;;;;;;3.88;2.70;;;18.00;99.90;;;;;;4990507;28;20550;-91
2022/09/13 06:56:06;;;;;;;4.78;2.72;;;17.90;99.90;;;;;;4974199;28;20038;-92
2022/09/13 06:58:33;;;;;;;6.80;3.25;;;18.10;99.90;;;;;;4977503;28;20043;-92
2022/09/13 07:01:11;;;;;;;7.13;3.33;;;18.20;99.90;;;;;;4970006;28;20427;-90
2022/09/13 07:03:42;;;;;;;5.72;2.80;;;18.50;99.90;;;;;;4967709;28;20417;-90
2022/09/13 07:06:14;;;;;;;5.97;2.67;;;18.40;99.90;;;;;;4967057;28;20031;-90
2022/09/13 07:08:41;;;;;;;5.00;2.90;;;18.50;99.90;;;;;;5005947;28;20038;-94
2022/09/13 07:11:08;;;;;;;9.00;2.58;;;18.50;99.90;;;;;;4972528;28;20060;-91
2022/09/13 07:13:34;;;;;;;6.45;2.50;;;18.40;99.90;;;;;;4964976;28;20547;-90
2022/09/13 07:16:01;;;;;;;6.65;2.20;;;18.40;99.90;;;;;;4972487;28;20043;-91
2022/09/13 07:18:27;;;;;;;4.55;2.03;;;18.70;99.90;;;;;;4971257;28;20038;-93
2022/09/13 07:21:00;;;;;;;9.13;2.30;;;18.60;99.90;;;;;;4970394;28;20435;-90
2022/09/13 07:23:30;;;;;;;8.32;2.78;;;18.60;99.90;;;;;;4998446;28;20114;-90
2022/09/13 07:26:00;;;;;;;6.53;2.10;;;18.40;99.90;;;;;;4994555;28;20061;-90
2022/09/13 07:28:29;;;;;;;7.45;1.92;;;18.50;99.90;;;;;;4992326;28;20051;-91
2022/09/13 07:30:57;;;;;;;7.93;2.22;;;18.60;99.90;;;;;;4970676;28;20117;-91
2022/09/13 07:33:24;;;;;;;5.85;2.10;;;18.80;99.90;;;;;;4976634;28;20034;-92
2022/09/13 07:35:58;;;;;;;5.13;1.63;;;18.60;99.90;;;;;;4986516;28;20249;-90
2022/09/13 07:38:24;;;;;;;7.03;1.75;;;18.70;99.90;;;;;;4968683;28;20039;-90
2022/09/13 07:40:57;;;;;;;10.23;1.90;;;18.70;99.90;;;;;;4972070;28;20097;-91
2022/09/13 07:43:27;;;;;;;8.18;1.52;;;18.50;99.90;;;;;;4972276;28;20161;-91
2022/09/13 07:46:01;;;;;;;8.40;1.80;;;18.60;99.90;;;;;;4972845;28;20042;-91
2022/09/13 07:48:28;;;;;;;6.00;1.53;;;18.70;99.90;;;;;;4988285;28;20042;-91
2022/09/13 07:50:59;;;;;;;4.63;1.20;;;19.00;99.90;;;;;;4971245;28;20046;-90
2022/09/13 07:53:25;;;;;;;4.07;1.08;;;18.90;99.90;;;;;;4968390;28;20042;-91
2022/09/13 07:55:58;;;;;;;3.22;1.27;;;18.60;99.90;;;;;;4971737;28;20045;-92
2022/09/13 07:58:24;;;;;;;8.27;1.70;;;18.60;99.90;;;;;;4969340;28;20068;-92
2022/09/13 08:00:53;;;;;;;5.05;1.42;;;18.30;99.90;;;;;;5012545;28;20471;-92
2022/09/13 08:03:19;;;;;;;5.47;1.20;;;18.40;99.90;;;;;;4992850;28;20455;-91
2022/09/13 08:05:44;;;;;;;7.65;1.20;;;18.30;99.90;;;;;;4995519;28;20115;-92
2022/09/13 08:08:10;;;;;;;4.20;1.42;;;18.40;99.90;;;;;;4974370;28;20085;-91
2022/09/13 08:10:36;;;;;;;5.40;1.30;;;18.50;1.00;;;;;;4973463;28;20122;-92
2022/09/13 08:13:01;;;;;;;5.13;1.33;;;18.50;99.90;;;;;;4972892;28;20105;-92
2022/09/13 08:15:27;;;;;;;4.13;0.90;;;18.40;99.90;;;;;;4990400;28;20054;-92
2022/09/13 08:17:53;;;;;;;5.13;1.20;;;18.50;99.90;;;;;;4994608;28;20096;-92
2022/09/13 08:20:19;;;;;;;4.60;1.15;;;18.70;99.90;;;;;;4966383;28;20502;-91
2022/09/13 08:22:45;;;;;;;3.08;1.08;;;18.60;1.00;;;;;;4971465;28;20045;-91
2022/09/13 08:25:11;;;;;;;6.45;0.98;;;18.70;99.90;;;;;;4967680;28;20116;-91
2022/09/13 08:27:37;;;;;;;3.20;0.98;;;18.80;99.90;;;;;;4974746;28;20045;-93
2022/09/13 08:30:04;;;;;;;3.75;0.80;;;18.70;1.00;;;;;;4970180;28;20038;-91
2022/09/13 08:32:30;;;;;;;5.55;1.15;;;18.80;99.90;;;;;;4970412;28;20112;-92
2022/09/13 08:34:56;;;;;;;3.85;1.02;;;19.00;99.90;;;;;;4995119;28;22652;-92
2022/09/13 08:37:22;;;;;;;8.85;1.27;;;19.20;99.90;;;;;;4984599;28;20468;-92
2022/09/13 08:39:48;;;;;;;5.32;1.27;;;19.10;99.90;;;;;;5008114;28;20050;-91
2022/09/13 08:42:31;;;;;;;3.08;1.08;;;19.00;93.10;;;;;;5002363;28;20134;-91
2022/09/13 08:44:58;;;;;;;5.95;1.08;;;18.90;99.90;;;;;;5011207;28;20074;-92
2022/09/13 08:47:36;;;;;;;6.50;1.08;;;19.00;99.90;;;;;;4995358;28;20038;-92
2022/09/13 08:50:10;;;;;;;7.50;1.27;;;19.00;1.00;;;;;;4970772;28;20216;-91
2022/09/13 08:52:56;;;;;;;6.70;1.20;;;18.80;31.00;;;;;;4964949;28;20038;-91
2022/09/13 08:56:02;;;;;;;5.53;1.23;;;18.90;99.90;;;;;;4962719;28;20555;-91
2022/09/13 08:58:48;;;;;;;6.00;1.38;;;19.10;1.00;;;;;;5012328;28;20043;-92
2022/09/13 09:01:13;;;;;;;7.65;1.20;;;18.90;99.90;;;;;;4963660;28;20038;-93
2022/09/13 09:03:39;;;;;;;6.20;1.15;;;19.10;99.90;;;;;;4970572;28;20038;-91
2022/09/13 09:06:11;;;;;;;4.32;1.20;;;19.40;93.20;;;;;;4994152;28;20042;-90
2022/09/13 09:08:45;;;;;;;9.32;1.33;;;19.60;99.90;;;;;;4981724;28;20045;-93
2022/09/13 09:11:24;;;;;;;4.20;1.27;;;19.30;1.00;;;;;;4969713;28;20039;-93
2022/09/13 09:14:24;;;;;;;6.38;1.30;;;19.10;99.90;;;;;;4968166;28;20300;-91
2022/09/13 09:17:21;;;;;;;6.85;1.20;;;19.00;99.90;;;;;;4976031;28;20141;-91
2022/09/13 09:20:22;;;;;;;10.85;1.40;;;19.10;99.90;;;;;;5010429;28;20046;-91
2022/09/13 09:22:49;;;;;;;4.00;1.15;;;19.10;99.90;;;;;;5008169;28;20046;-91
2022/09/13 09:25:15;;;;;;;8.32;1.77;;;19.50;99.90;;;;;;4963551;28;20050;-92
2022/09/13 09:27:41;;;;;;;7.55;1.25;;;19.80;99.90;;;;;;4993711;28;20042;-90
2022/09/13 09:30:13;;;;;;;6.72;0.98;;;20.00;99.90;;;;;;4972112;28;20052;-94
2022/09/13 09:33:07;;;;;;;8.88;1.23;;;20.40;1.00;;;;;;4957032;28;20050;-92
2022/09/13 09:35:52;;;;;;;5.93;1.20;;;19.90;99.90;;;;;;4967112;28;20343;-92
2022/09/13 09:38:34;;;;;;;5.28;1.20;;;19.70;99.90;;;;;;4969323;28;20114;-93
2022/09/13 09:41:05;;;;;;;3.50;0.80;;;19.80;99.90;;;;;;4987397;28;20106;-93
2022/09/13 09:43:38;;;;;;;3.53;1.00;;;19.80;99.90;;;;;;4965509;28;20494;-94
2022/09/13 09:46:06;;;;;;;4.15;1.08;;;19.70;99.90;;;;;;4997018;28;20078;-91
2022/09/13 09:48:40;;;;;;;3.60;1.00;;;19.60;99.90;;;;;;4957718;28;20039;-91
2022/09/13 09:51:10;;;;;;;3.00;1.00;;;19.80;99.90;;;;;;4971898;28;20228;-93
2022/09/13 09:53:42;;;;;;;4.40;1.00;;;20.20;1.00;;;;;;4968571;28;20130;-91
2022/09/13 09:56:32;;;;;;;7.32;1.35;;;20.10;99.90;;;;;;4964684;28;20247;-91
2022/09/13 09:58:57;;;;;;;3.75;1.20;;;20.60;99.90;;;;;;4996688;28;20050;-91
2022/09/13 10:01:31;;;;;;;4.82;1.58;;;20.60;99.90;;;;;;4991229;28;20117;-93
2022/09/13 10:04:09;;;;;;;7.10;1.20;;;20.30;99.90;;;;;;5000135;28;20129;-93
2022/09/13 10:06:37;;;;;;;7.30;1.20;;;20.20;99.90;;;;;;4976992;28;20081;-92
2022/09/13 10:09:06;;;;;;;5.13;1.13;;;19.80;99.90;;;;;;4961881;28;20042;-93
2022/09/13 10:11:53;;;;;;;5.30;1.15;;;19.60;99.90;;;;;;4958837;28;20132;-93
2022/09/13 10:14:57;;;;;;;6.32;1.00;;;19.90;99.90;;;;;;4961964;28;20100;-92
2022/09/13 10:17:25;;;;;;;5.68;0.98;;;20.40;99.90;;;;;;4942043;28;20168;-92
2022/09/13 10:20:19;;;;;;;2.75;0.90;;;20.90;99.90;;;;;;4969100;28;20541;-92
2022/09/13 10:23:05;;;;;;;4.30;1.23;;;21.10;99.90;;;;;;4956079;28;20430;-92
2022/09/13 10:25:30;;;;;;;3.13;1.10;;;20.90;99.90;;;;;;4989423;28;20053;-91
2022/09/13 10:27:59;;;;;;;6.15;1.00;;;21.00;99.90;;;;;;4974539;28;20050;-90
2022/09/13 10:30:47;;;;;;;6.65;0.90;;;21.10;99.90;;;;;;4969409;28;20053;-93
2022/09/13 10:33:37;;;;;;;2.22;0.65;;;21.10;99.90;;;;;;4976130;28;20068;-91
2022/09/13 10:36:14;;;;;;;4.07;1.63;;;21.30;99.90;;;;;;4959386;28;20745;-92
2022/09/13 10:38:42;;;;;;;4.38;1.10;;;21.20;99.90;;;;;;4974229;28;20042;-92
2022/09/13 10:41:21;;;;;;;8.18;1.05;;;20.90;99.90;;;;;;4973410;28;20034;-92
2022/09/13 10:43:47;;;;;;;4.13;1.60;;;20.60;99.90;;;;;;4973442;28;20038;-92
2022/09/13 10:46:22;;;;;;;5.15;1.30;;;20.10;1.00;;;;;;5000253;28;20371;-92
2022/09/13 10:48:58;;;;;;;4.60;1.40;;;19.80;99.90;;;;;;4972557;28;20100;-91
2022/09/13 10:51:26;;;;;;;8.23;1.52;;;19.60;99.90;;;;;;5002213;28;20385;-91
2022/09/13 10:54:19;;;;;;;4.63;1.27;;;19.60;1.00;;;;;;4964358;28;20055;-92
2022/09/13 10:56:49;;;;;;;7.90;1.40;;;19.90;99.90;;;;;;4960765;28;20134;-91
2022/09/13 10:59:28;;;;;;;5.80;1.35;;;20.40;30.70;;;;;;4972898;28;20129;-92
2022/09/13 11:02:21;;;;;;;3.33;1.00;;;20.90;99.90;;;;;;4972423;28;20035;-90
2022/09/13 11:05:08;;;;;;;3.50;0.98;;;21.30;1.00;;;;;;4969928;28;20268;-92
2022/09/13 11:07:58;;;;;;;2.72;1.00;;;20.40;99.90;;;;;;4974159;28;20042;-93
2022/09/13 11:10:38;;;;;;;6.25;0.93;;;20.30;99.90;;;;;;4999152;28;20042;-92
2022/09/13 11:13:26;;;;;;;5.60;1.02;;;20.30;99.90;;;;;;4979701;28;20557;-94
2022/09/13 11:16:04;;;;;;;4.93;1.10;;;20.60;99.90;;;;;;4978768;28;20038;-91
2022/09/13 11:18:30;;;;;;;3.63;0.75;;;20.90;90.90;;;;;;4987617;28;20053;-92
2022/09/13 11:21:09;;;;;;;3.83;1.00;;;21.50;99.90;;;;;;4972084;28;20141;-91
2022/09/13 11:24:02;;;;;;;5.38;1.17;;;21.60;99.90;;;;;;4970222;28;20493;-91
2022/09/13 11:26:58;;;;;;;2.42;0.70;;;21.40;1.00;;;;;;5001794;28;20042;-92
2022/09/13 11:29:30;;;;;;;2.92;0.80;;;20.70;1.00;;;;;;5000086;28;20260;-91
2022/09/13 11:32:06;;;;;;;5.65;0.88;;;20.30;1.00;;;;;;4970703;28;20042;-91
2022/09/13 11:34:53;;;;;;;4.20;0.80;;;20.00;1.00;;;;;;4970885;28;20237;-92
2022/09/13 11:37:37;;;;;;;3.67;0.98;;;20.30;1.00;;;;;;5003614;28;20058;-89
2022/09/13 11:40:09;;;;;;;3.42;0.63;;;20.90;1.00;;;;;;4973104;28;20041;-93
2022/09/13 11:43:39;;;;;;;4.65;1.00;;;21.10;1.00;;;;;;5003520;28;20133;-91
2022/09/13 11:46:10;;;;;;;3.63;0.88;;;21.40;1.00;;;;;;4967787;28;20038;-91
2022/09/13 11:49:02;;;;;;;4.13;0.93;;;21.60;99.90;;;;;;4985597;28;20050;-91
2022/09/13 11:51:49;;;;;;;4.30;1.02;;;21.50;1.00;;;;;;4993647;28;20054;-93
2022/09/13 11:54:20;;;;;;;2.97;0.80;;;21.40;1.00;;;;;;4996183;28;20069;-90
2022/09/13 11:56:57;;;;;;;4.03;0.88;;;21.20;99.90;;;;;;4977177;28;20043;-91
2022/09/13 11:59:28;;;;;;;4.57;0.85;;;21.20;1.00;;;;;;4987532;28;20053;-91
2022/09/13 12:01:59;;;;;;;3.30;0.80;;;21.10;99.90;;;;;;4973333;28;20041;-92
2022/09/13 12:04:51;;;;;;;4.75;1.02;;;21.40;99.90;;;;;;4987682;28;20069;-91
2022/09/13 12:07:55;;;;;;;4.18;1.02;;;21.70;99.90;;;;;;4995810;28;20051;-91
2022/09/13 12:10:31;;;;;;;4.80;1.08;;;21.50;1.00;;;;;;4997701;28;20279;-92
2022/09/13 12:13:00;;;;;;;5.68;1.05;;;21.50;1.00;;;;;;4970626;28;20057;-90
2022/09/13 12:15:40;;;;;;;4.97;1.00;;;21.50;99.90;;;;;;4997350;28;20049;-89
2022/09/13 12:18:27;;;;;;;4.35;1.20;;;21.40;99.90;;;;;;4992877;28;20383;-91
2022/09/13 12:21:02;;;;;;;3.63;0.73;;;21.20;99.90;;;;;;4994088;28;20038;-89
2022/09/13 12:23:39;;;;;;;3.25;0.90;;;21.30;99.90;;;;;;4970009;28;20123;-90
2022/09/13 12:26:09;;;;;;;3.97;0.93;;;21.60;99.90;;;;;;4986423;28;20073;-90
2022/09/13 12:28:42;;;;;;;6.28;1.23;;;21.70;99.90;;;;;;4970321;28;20041;-90
2022/09/13 12:31:22;;;;;;;5.25;1.02;;;21.20;1.00;;;;;;4988634;28;20091;-91
2022/09/13 12:33:48;;;;;;;3.05;0.90;;;20.90;1.00;;;;;;5001315;28;20196;-91
2022/09/13 12:36:35;;;;;;;6.10;1.25;;;21.10;1.00;;;;;;4972605;28;20126;-89
2022/09/13 12:39:39;;;;;;;6.95;1.33;;;20.90;1.00;;;;;;4986303;28;20100;-91
2022/09/13 12:42:24;;;;;;;3.97;1.13;;;21.00;21.30;;;;;;4985200;28;20037;-90
2022/09/13 12:44:55;;;;;;;5.53;1.25;;;21.20;1.00;;;;;;4978135;28;20078;-89
2022/09/13 12:47:38;;;;;;;6.35;1.20;;;21.30;1.00;;;;;;4998555;28;20041;-89
2022/09/13 12:50:19;;;;;;;4.65;0.80;;;21.10;1.00;;;;;;4960818;28;20162;-90
2022/09/13 12:53:04;;;;;;;6.03;1.40;;;20.70;1.00;;;;;;4989675;28;20050;-89
2022/09/13 12:56:23;;;;;;;4.57;1.40;;;20.50;1.00;;;;;;4967585;28;20089;-90
2022/09/13 12:59:02;;;;;;;8.18;1.50;;;20.80;1.00;;;;;;4916537;29;20436;-89
2022/09/13 13:01:30;;;;;;;3.05;1.05;;;21.10;99.90;;;;;;4981278;28;20387;-90
2022/09/13 13:04:02;;;;;;;4.13;1.10;;;21.40;1.00;;;;;;4976717;28;20695;-88
2022/09/13 13:06:56;;;;;;;5.90;1.30;;;21.50;1.00;;;;;;4990414;28;20070;-88
2022/09/13 13:09:24;;;;;;;7.25;1.42;;;21.30;1.00;;;;;;4987898;28;20060;-87
2022/09/13 13:11:53;;;;;;;7.95;1.40;;;21.00;99.90;;;;;;4966859;28;20482;-87
2022/09/13 13:14:29;;;;;;;5.30;1.42;;;21.30;1.00;;;;;;4992246;28;20058;-88
2022/09/13 13:17:36;;;;;;;6.20;1.30;;;21.20;73.20;;;;;;5008187;28;20046;-89
2022/09/13 13:20:42;;;;;;;6.13;1.40;;;20.60;69.00;;;;;;4959746;28;20053;-89